Galena, Maryland
Current Conditions -  °F | °C
As of 1:58 PM on Sunday 23 Nov 2014 (Local Time) from KDOV Reporting Station
Few Clouds Few Clouds  
Wind Chill: 56°   Ceiling: Unl
Heat Index: 56°   Visibility: 10mi
Dew Point: 42°   Wind: 5mph
Humidity: 60%   Direction: 170°S
Pressure: 30.13"   Gusts: NA
Location:  39.34°N, 75.88°W
Report Text: KDOV 231858Z AUTO 17004KT 10SM FEW190 14/06 A3013 RMK AO2 SLP206 T01350058
Loading
Personal Weather Stations






























Interactive Weather Map New forecast layout! Learn more

10-Day Weather Forecast

Advertisements
Track Severe Weather on mobile